createdAt,value
2023-03-03T00:00:57.611Z,97772.88
2023-03-03T00:03:27.240Z,97780.47
2023-03-03T00:05:54.709Z,97778.69
2023-03-03T00:08:22.947Z,97774.47
2023-03-03T00:10:50.448Z,97775.56
2023-03-03T00:13:22.252Z,97791.22
2023-03-03T00:15:49.451Z,97779.44
2023-03-03T00:18:37.281Z,97782.88
2023-03-03T00:21:25.583Z,97781.31
2023-03-03T00:23:53.620Z,97778.00
2023-03-03T00:26:36.333Z,97773.00
2023-03-03T00:29:39.134Z,97772.88
2023-03-03T00:32:27.478Z,97778.81
2023-03-03T00:35:01.512Z,97778.13
2023-03-03T00:37:34.956Z,97786.81
2023-03-03T00:40:42.328Z,97786.88
2023-03-03T00:43:36.024Z,97787.88
2023-03-03T00:46:03.233Z,97788.88
2023-03-03T00:48:35.827Z,97783.84
2023-03-03T00:51:26.584Z,97797.66
2023-03-03T00:53:53.836Z,97787.50
2023-03-03T00:56:20.654Z,97791.06
2023-03-03T00:58:48.109Z,97796.06
2023-03-03T01:01:16.547Z,97796.06
2023-03-03T01:03:43.759Z,97791.06
2023-03-03T01:06:12.276Z,97788.69
2023-03-03T01:08:39.333Z,97791.06
2023-03-03T01:11:28.511Z,97789.00
2023-03-03T01:13:56.437Z,97778.66
2023-03-03T01:16:23.280Z,97789.78
2023-03-03T01:18:50.033Z,97781.34
2023-03-03T01:21:16.778Z,97788.00
2023-03-03T01:23:43.525Z,97780.31
2023-03-03T01:26:10.586Z,97776.03
2023-03-03T01:28:37.332Z,97778.53
2023-03-03T01:31:05.860Z,97776.56
2023-03-03T01:33:34.214Z,97781.56
2023-03-03T01:36:01.521Z,97789.13
2023-03-03T01:38:28.975Z,97781.44
2023-03-03T01:41:00.121Z,97779.00
2023-03-03T01:43:32.397Z,97779.19
2023-03-03T01:45:59.094Z,97781.81
2023-03-03T01:48:34.578Z,97781.16
2023-03-03T01:51:07.887Z,97778.72
2023-03-03T01:53:43.706Z,97776.22
2023-03-03T01:56:11.209Z,97772.09
2023-03-03T01:58:45.292Z,97777.16
2023-03-03T02:01:19.242Z,97771.25
2023-03-03T02:03:46.112Z,97774.59
2023-03-03T02:06:17.093Z,97777.38
2023-03-03T02:08:59.465Z,97778.53
2023-03-03T02:11:29.986Z,97766.84
2023-03-03T02:13:56.709Z,97764.53
2023-03-03T02:16:23.606Z,97778.41
2023-03-03T02:18:50.435Z,97778.53
2023-03-03T02:21:22.337Z,97775.97
2023-03-03T02:24:18.270Z,97776.88
2023-03-03T02:26:46.195Z,97772.53
2023-03-03T02:29:13.105Z,97774.38
2023-03-03T02:31:40.040Z,97765.13
2023-03-03T02:34:07.204Z,97773.88
2023-03-03T02:36:37.782Z,97769.78
2023-03-03T02:39:20.514Z,97783.66
2023-03-03T02:41:55.470Z,97775.25
2023-03-03T02:44:26.083Z,97783.00
2023-03-03T02:46:55.157Z,97779.75
2023-03-03T02:49:28.824Z,97781.63
2023-03-03T02:51:55.833Z,97776.66
2023-03-03T02:54:26.398Z,97773.34
2023-03-03T02:56:53.368Z,97775.91
2023-03-03T02:59:20.150Z,97778.41
2023-03-03T03:01:47.506Z,97779.34
2023-03-03T03:04:21.793Z,97778.63
2023-03-03T03:06:49.280Z,97790.56
2023-03-03T03:09:18.237Z,97787.28
2023-03-03T03:11:45.187Z,97790.75
2023-03-03T03:14:13.916Z,97781.25
2023-03-03T03:16:41.498Z,97777.97
2023-03-03T03:19:08.726Z,97790.81
2023-03-03T03:21:35.546Z,97784.81
2023-03-03T03:24:02.305Z,97775.50
2023-03-03T03:26:29.121Z,97774.81
2023-03-03T03:28:55.906Z,97785.16
2023-03-03T03:31:22.689Z,97790.47
2023-03-03T03:33:49.556Z,97791.41
2023-03-03T03:36:17.380Z,97793.28
2023-03-03T03:38:44.275Z,97794.97
2023-03-03T03:41:13.616Z,97797.56
2023-03-03T03:43:41.005Z,97789.84
2023-03-03T03:46:13.519Z,97786.53
2023-03-03T03:48:40.322Z,97795.09
2023-03-03T03:51:07.056Z,97798.66
2023-03-03T03:53:33.779Z,97803.81
2023-03-03T03:56:00.498Z,97800.41
2023-03-03T03:58:27.302Z,97798.88
2023-03-03T04:00:54.070Z,97800.59
2023-03-03T04:03:21.007Z,97808.31
2023-03-03T04:05:47.792Z,97807.50
2023-03-03T04:08:14.527Z,97798.25
2023-03-03T04:10:41.246Z,97800.88
2023-03-03T04:13:07.990Z,97796.72
2023-03-03T04:15:35.032Z,97798.50
2023-03-03T04:18:03.626Z,97804.41
2023-03-03T04:20:30.386Z,97809.59
2023-03-03T04:22:57.215Z,97791.22
2023-03-03T04:25:24.025Z,97787.91
2023-03-03T04:27:52.743Z,97794.72
2023-03-03T04:30:19.816Z,97803.97
2023-03-03T04:32:47.425Z,97803.94
2023-03-03T04:35:14.168Z,97806.47
2023-03-03T04:37:40.911Z,97809.94
2023-03-03T04:40:09.409Z,97816.94
2023-03-03T04:42:36.755Z,97805.16
2023-03-03T04:45:05.600Z,97807.81
2023-03-03T04:47:32.763Z,97808.75
2023-03-03T04:50:00.733Z,97813.88
2023-03-03T04:52:28.196Z,97812.16
2023-03-03T04:54:55.387Z,97801.22
2023-03-03T04:57:22.700Z,97812.31
2023-03-03T04:59:49.405Z,97805.63
2023-03-03T05:02:16.786Z,97806.53
2023-03-03T05:04:43.679Z,97808.19
2023-03-03T05:07:10.798Z,97815.78
2023-03-03T05:09:38.036Z,97815.59
2023-03-03T05:12:05.297Z,97821.41
2023-03-03T05:14:32.290Z,97823.28
2023-03-03T05:16:59.027Z,97814.19
2023-03-03T05:19:26.322Z,97828.66
2023-03-03T05:21:53.043Z,97824.44
2023-03-03T05:24:19.775Z,97825.34
2023-03-03T05:26:46.574Z,97824.56
2023-03-03T05:29:13.299Z,97820.28
2023-03-03T05:31:40.060Z,97819.56
2023-03-03T05:34:06.818Z,97818.06
2023-03-03T05:36:33.758Z,97832.84
2023-03-03T05:39:00.476Z,97833.03
2023-03-03T05:41:27.244Z,97831.41
2023-03-03T05:43:54.548Z,97829.75
2023-03-03T05:46:21.349Z,97832.34
2023-03-03T05:48:48.128Z,97848.50
2023-03-03T05:51:14.931Z,97842.53
2023-03-03T05:53:42.409Z,97844.13
2023-03-03T05:56:09.192Z,97848.44
2023-03-03T05:58:36.214Z,97849.38
2023-03-03T06:01:03.224Z,97852.75
2023-03-03T06:03:30.032Z,97845.22
2023-03-03T06:05:56.761Z,97857.22
2023-03-03T06:08:23.677Z,97871.44
2023-03-03T06:10:50.476Z,97864.53
2023-03-03T06:13:17.240Z,97882.13
2023-03-03T06:15:44.026Z,97882.19
2023-03-03T06:18:11.041Z,97871.16
2023-03-03T06:20:38.754Z,97872.84
2023-03-03T06:23:05.922Z,97879.59
2023-03-03T06:25:35.531Z,97875.84
2023-03-03T06:28:03.807Z,97881.38
2023-03-03T06:30:30.685Z,97885.47
2023-03-03T06:33:00.187Z,97893.50
2023-03-03T06:35:27.340Z,97893.13
2023-03-03T06:37:54.271Z,97901.25
2023-03-03T06:40:21.066Z,97909.47
2023-03-03T06:42:47.790Z,97909.25
2023-03-03T06:45:14.757Z,97910.69
2023-03-03T06:47:42.131Z,97917.41
2023-03-03T06:50:12.309Z,97912.13
2023-03-03T06:52:39.211Z,97912.63
2023-03-03T06:55:35.440Z,97914.06
2023-03-03T06:58:02.968Z,97913.59
2023-03-03T07:00:31.308Z,97912.16
2023-03-03T07:03:05.895Z,97914.94
2023-03-03T07:05:34.290Z,97910.56
2023-03-03T07:08:01.028Z,97915.75
2023-03-03T07:10:30.874Z,97919.09
2023-03-03T07:13:19.258Z,97912.16
2023-03-03T07:15:48.781Z,97912.94
2023-03-03T07:18:40.686Z,97920.63
2023-03-03T07:21:17.792Z,97922.09
2023-03-03T07:23:47.057Z,97922.13
2023-03-03T07:26:35.442Z,97925.84
2023-03-03T07:29:22.137Z,97929.78
2023-03-03T07:31:50.877Z,97929.78
2023-03-03T07:34:47.568Z,97939.16
2023-03-03T07:37:25.432Z,97939.81
2023-03-03T07:39:52.225Z,97942.25
2023-03-03T07:42:39.868Z,97940.44
2023-03-03T07:45:32.335Z,97946.88
2023-03-03T07:48:30.425Z,97946.38
2023-03-03T07:51:01.495Z,97944.94
2023-03-03T07:53:34.749Z,97939.16
2023-03-03T07:56:01.900Z,97934.38
2023-03-03T07:58:39.284Z,97954.88
2023-03-03T08:01:43.547Z,97955.66
2023-03-03T08:04:18.632Z,97954.97
2023-03-03T08:06:51.847Z,97961.19
2023-03-03T08:09:18.464Z,97958.50
2023-03-03T08:12:01.455Z,97949.84
2023-03-03T08:14:34.580Z,97953.16
2023-03-03T08:17:02.102Z,97959.56
2023-03-03T08:19:31.081Z,97963.22
2023-03-03T08:22:12.394Z,97960.53
2023-03-03T08:24:39.132Z,97958.06
2023-03-03T08:27:05.859Z,97956.81
2023-03-03T08:29:32.578Z,97952.38
2023-03-03T08:31:59.425Z,97954.28
2023-03-03T08:34:26.297Z,97964.19
2023-03-03T08:36:53.183Z,97969.91
2023-03-03T08:39:20.073Z,97968.28
2023-03-03T08:41:47.747Z,97963.97
2023-03-03T08:44:14.528Z,97975.75
2023-03-03T08:46:41.334Z,97966.16
2023-03-03T08:49:08.074Z,97968.50
2023-03-03T08:51:34.945Z,97964.22
2023-03-03T08:54:01.784Z,97968.16
2023-03-03T08:56:28.617Z,97974.97
2023-03-03T08:59:03.294Z,97979.53
2023-03-03T09:01:32.268Z,97972.56
2023-03-03T09:03:59.994Z,97958.69
2023-03-03T09:06:26.840Z,97956.84
2023-03-03T09:08:54.829Z,97953.38
2023-03-03T09:11:28.539Z,97967.00
2023-03-03T09:14:17.993Z,97956.56
2023-03-03T09:16:53.364Z,97943.34
2023-03-03T09:19:33.709Z,97950.25
2023-03-03T09:22:26.129Z,97951.75
2023-03-03T09:25:00.032Z,97948.84
2023-03-03T09:27:34.525Z,97950.09
2023-03-03T09:30:24.309Z,97943.88
2023-03-03T09:32:51.077Z,97948.63
2023-03-03T09:35:38.664Z,97947.69
2023-03-03T09:38:47.180Z,97954.50
2023-03-03T09:41:50.602Z,97953.66
2023-03-03T09:44:38.088Z,97950.69
2023-03-03T09:47:33.258Z,97960.22
2023-03-03T09:50:30.023Z,97954.22
2023-03-03T09:53:39.477Z,97967.03
2023-03-03T09:56:22.185Z,97965.38
2023-03-03T09:59:10.253Z,97963.59
2023-03-03T10:02:36.867Z,97957.88
2023-03-03T10:05:19.272Z,97973.31
2023-03-03T10:08:31.788Z,97976.16
2023-03-03T10:11:03.846Z,97966.84
2023-03-03T10:13:52.469Z,97962.13
2023-03-03T10:16:34.084Z,97960.84
2023-03-03T10:19:35.884Z,97963.03
2023-03-03T10:22:17.540Z,97960.66
2023-03-03T10:25:05.910Z,97961.00
2023-03-03T10:27:40.837Z,97957.66
2023-03-03T10:30:41.207Z,97964.00
2023-03-03T10:34:00.360Z,97954.88
2023-03-03T10:36:53.715Z,97954.56
2023-03-03T10:40:08.709Z,97949.44
2023-03-03T10:43:02.342Z,97944.94
2023-03-03T10:45:39.513Z,97948.13
2023-03-03T10:48:41.508Z,97941.47
2023-03-03T10:51:58.853Z,97948.53
2023-03-03T10:55:01.350Z,97942.56
2023-03-03T10:58:07.926Z,97949.16
2023-03-03T11:00:48.621Z,97941.78
2023-03-03T11:03:33.371Z,97948.91
2023-03-03T11:06:06.091Z,97943.19
2023-03-03T11:08:48.541Z,97947.63
2023-03-03T11:11:25.413Z,97937.00
2023-03-03T11:14:23.044Z,97939.78
2023-03-03T11:17:26.278Z,97944.47
2023-03-03T11:20:02.197Z,97947.81
2023-03-03T11:23:11.387Z,97937.34
2023-03-03T11:26:11.466Z,97942.06
2023-03-03T11:28:56.460Z,97936.41
2023-03-03T11:32:07.463Z,97930.16
2023-03-03T11:35:06.784Z,97928.25
2023-03-03T11:37:50.561Z,97927.50
2023-03-03T11:40:31.778Z,97923.25
2023-03-03T11:43:35.337Z,97918.72
2023-03-03T11:46:36.339Z,97915.56
2023-03-03T11:49:22.420Z,97919.81
2023-03-03T11:52:34.612Z,97913.53
2023-03-03T11:55:18.874Z,97900.59
2023-03-03T11:58:00.902Z,97904.25
2023-03-03T12:00:47.155Z,97895.25
2023-03-03T12:03:53.353Z,97898.53
2023-03-03T12:07:18.515Z,97894.75
2023-03-03T12:10:01.882Z,97886.69
2023-03-03T12:12:56.389Z,97885.75
2023-03-03T12:15:55.064Z,97880.19
2023-03-03T12:19:03.396Z,97888.16
2023-03-03T12:21:56.221Z,97877.91
2023-03-03T12:24:43.206Z,97868.34
2023-03-03T12:27:34.180Z,97866.56
2023-03-03T12:30:31.980Z,97868.34
2023-03-03T12:33:36.244Z,97857.56
2023-03-03T12:36:05.467Z,97855.63
2023-03-03T12:39:25.285Z,97857.09
2023-03-03T12:42:40.645Z,97857.47
2023-03-03T12:46:06.623Z,97839.91
2023-03-03T12:48:46.020Z,97835.00
2023-03-03T12:51:55.267Z,97838.88
2023-03-03T12:54:58.765Z,97829.31
2023-03-03T12:57:55.336Z,97830.63
2023-03-03T13:00:39.057Z,97832.41
2023-03-03T13:03:15.221Z,97830.59
2023-03-03T13:06:14.894Z,97838.88
2023-03-03T13:09:25.608Z,97829.53
2023-03-03T13:12:27.994Z,97829.16
2023-03-03T13:15:05.128Z,97827.16
2023-03-03T13:18:28.941Z,97817.63
2023-03-03T13:21:39.806Z,97824.13
2023-03-03T13:24:50.015Z,97829.41
2023-03-03T13:27:20.981Z,97813.03
2023-03-03T13:30:14.421Z,97817.88
2023-03-03T13:32:59.407Z,97813.66
2023-03-03T13:35:49.882Z,97824.84
2023-03-03T13:38:25.240Z,97815.97
2023-03-03T13:41:09.758Z,97814.03
2023-03-03T13:43:58.348Z,97812.28
2023-03-03T13:46:43.268Z,97813.47
2023-03-03T13:49:32.043Z,97804.94
2023-03-03T13:52:19.058Z,97799.31
2023-03-03T13:55:05.030Z,97802.59
2023-03-03T13:57:48.715Z,97801.28
2023-03-03T14:00:33.730Z,97787.81
2023-03-03T14:03:37.312Z,97799.31
2023-03-03T14:06:19.449Z,97794.41
2023-03-03T14:09:40.180Z,97796.88
2023-03-03T14:12:45.627Z,97794.13
2023-03-03T14:15:38.499Z,97797.53
2023-03-03T14:18:24.623Z,97790.03
2023-03-03T14:21:00.651Z,97788.81
2023-03-03T14:24:15.173Z,97792.25
2023-03-03T14:26:57.762Z,97785.63
2023-03-03T14:29:27.510Z,97791.16
2023-03-03T14:32:03.041Z,97760.59
2023-03-03T14:34:41.663Z,61792.09
2023-03-03T14:37:42.114Z,97783.38
2023-03-03T14:40:22.424Z,97792.19
2023-03-03T14:42:52.044Z,97792.19
2023-03-03T14:45:31.023Z,97783.63
2023-03-03T14:48:00.763Z,97781.19
2023-03-03T14:50:51.259Z,97778.06
2023-03-03T14:53:17.916Z,97775.06
2023-03-03T14:55:49.341Z,97777.91
2023-03-03T14:58:39.946Z,97775.69
2023-03-03T15:01:16.610Z,97782.47
2023-03-03T15:04:09.851Z,97771.88
2023-03-03T15:06:44.718Z,97776.59
2023-03-03T15:09:35.878Z,97763.59
2023-03-03T15:12:22.690Z,97774.44
2023-03-03T15:15:19.489Z,97767.94
2023-03-03T15:18:04.108Z,97769.84
2023-03-03T15:21:01.921Z,97760.78
2023-03-03T15:24:00.534Z,97784.13
2023-03-03T15:26:59.963Z,61792.09
2023-03-03T15:30:04.304Z,61792.09
2023-03-03T15:32:46.078Z,61792.09
2023-03-03T15:35:37.496Z,61792.09
2023-03-03T15:38:23.776Z,61792.09
2023-03-03T15:41:14.411Z,61792.09
2023-03-03T15:44:08.648Z,61792.09
2023-03-03T15:47:43.537Z,61792.09
2023-03-03T15:50:23.834Z,61792.09
2023-03-03T15:53:38.561Z,61792.09
2023-03-03T15:56:20.435Z,61792.09
2023-03-03T15:59:14.373Z,61792.09
2023-03-03T16:02:16.092Z,61792.09
2023-03-03T16:05:01.359Z,61792.09
2023-03-03T16:08:13.881Z,61792.09
2023-03-03T16:11:22.832Z,61792.09
2023-03-03T16:14:45.878Z,61792.09
2023-03-03T16:17:27.559Z,61792.09
2023-03-03T16:20:22.565Z,61792.09
2023-03-03T16:23:28.985Z,61792.09
2023-03-03T16:26:04.990Z,61792.09
2023-03-03T16:28:50.783Z,61792.09
2023-03-03T16:31:56.966Z,61792.09
2023-03-03T16:34:47.689Z,61792.09
2023-03-03T16:37:32.683Z,61792.09
2023-03-03T16:40:21.789Z,61792.09
2023-03-03T16:43:10.725Z,61792.09
2023-03-03T16:45:40.235Z,61792.09
2023-03-03T16:48:27.527Z,61792.09
2023-03-03T16:51:33.298Z,61792.09
2023-03-03T16:54:15.274Z,61792.09
2023-03-03T16:57:06.191Z,61792.09
2023-03-03T17:00:23.882Z,61792.09
2023-03-03T17:03:14.914Z,61792.09
2023-03-03T17:06:03.731Z,61792.09
2023-03-03T17:08:51.029Z,61792.09
2023-03-03T17:11:53.407Z,61792.09
2023-03-03T17:15:24.493Z,61792.09
2023-03-03T17:18:18.470Z,61792.09
2023-03-03T17:20:58.821Z,61792.09
2023-03-03T17:23:49.013Z,61792.09
2023-03-03T17:26:34.689Z,61792.09
2023-03-03T17:29:29.825Z,61792.09
2023-03-03T17:33:05.988Z,61792.09
2023-03-03T17:35:45.130Z,61792.09
2023-03-03T17:38:42.126Z,61792.09
2023-03-03T17:41:25.938Z,61792.09
2023-03-03T17:44:11.684Z,61792.09
2023-03-03T17:46:56.602Z,61792.09
2023-03-03T17:49:40.978Z,61792.09
2023-03-03T17:52:24.576Z,61792.09
2023-03-03T17:55:49.788Z,61792.09
2023-03-03T17:59:11.769Z,61792.09
2023-03-03T18:02:33.969Z,61792.09
2023-03-03T18:05:28.015Z,61792.09
2023-03-03T18:08:20.515Z,61792.09
2023-03-03T18:11:12.251Z,61792.09
2023-03-03T18:14:12.371Z,61792.09
2023-03-03T18:17:16.960Z,61792.09
2023-03-03T18:20:08.306Z,61792.09
2023-03-03T18:22:51.015Z,61792.09
2023-03-03T18:25:22.696Z,61792.09
2023-03-03T18:28:01.304Z,61792.09
2023-03-03T18:30:51.809Z,61792.09
2023-03-03T18:33:35.016Z,61792.09
2023-03-03T18:36:37.422Z,61792.09
2023-03-03T18:39:06.793Z,61792.09
2023-03-03T18:42:30.278Z,61792.09
2023-03-03T18:44:58.247Z,61792.09
2023-03-03T18:47:57.012Z,61792.09
2023-03-03T18:50:39.816Z,61792.09
2023-03-03T18:53:28.494Z,61792.09
2023-03-03T18:55:59.188Z,61792.09
2023-03-03T18:58:38.334Z,61792.09
2023-03-03T19:01:31.668Z,61792.09
2023-03-03T19:04:19.900Z,61792.09
2023-03-03T19:06:49.761Z,61792.09
2023-03-03T19:09:50.444Z,61792.09
2023-03-03T19:12:17.805Z,61792.09
2023-03-03T19:14:48.974Z,61792.09
2023-03-03T19:17:18.443Z,61792.09
2023-03-03T19:20:18.063Z,61792.09
2023-03-03T19:23:02.809Z,61792.09
2023-03-03T19:25:32.553Z,61792.09
2023-03-03T19:28:29.518Z,61792.09
2023-03-03T19:31:24.602Z,61792.09
2023-03-03T19:34:03.103Z,61792.09
2023-03-03T19:36:44.700Z,61792.09
2023-03-03T19:39:23.277Z,61792.09
2023-03-03T19:41:55.754Z,61792.09
2023-03-03T19:45:08.719Z,61792.09
2023-03-03T19:48:34.222Z,61792.09
2023-03-03T19:51:35.913Z,61792.09
2023-03-03T19:54:43.936Z,61792.09
2023-03-03T19:57:31.592Z,61792.09
2023-03-03T20:00:21.232Z,61792.09
2023-03-03T20:03:47.375Z,61792.09
2023-03-03T20:07:04.036Z,61792.09
2023-03-03T20:10:09.627Z,61792.09
2023-03-03T20:12:53.440Z,61792.09
2023-03-03T20:15:31.495Z,61792.09
2023-03-03T20:24:50.078Z,61792.09
2023-03-03T20:27:21.914Z,61792.09
2023-03-03T20:30:13.051Z,61792.09
2023-03-03T20:33:20.024Z,61792.09
2023-03-03T20:36:16.582Z,61792.09
2023-03-03T20:39:08.663Z,61792.09
2023-03-03T20:42:33.044Z,61792.09
2023-03-03T20:45:17.966Z,61792.09
2023-03-03T20:48:07.095Z,61792.09
2023-03-03T20:51:10.908Z,61792.09
2023-03-03T20:54:17.217Z,61792.09
2023-03-03T20:56:49.975Z,61792.09
2023-03-03T20:59:39.738Z,61792.09
2023-03-03T21:02:46.312Z,61792.09
2023-03-03T21:05:22.629Z,61792.09
2023-03-03T21:08:01.417Z,61792.09
2023-03-03T21:10:35.558Z,61792.09
2023-03-03T21:13:44.036Z,61792.09
2023-03-03T21:16:29.895Z,61792.09
2023-03-03T21:19:11.974Z,61792.09
2023-03-03T21:21:47.675Z,61792.09
2023-03-03T21:24:19.490Z,61792.09
2023-03-03T21:26:52.063Z,61792.09
2023-03-03T21:29:39.087Z,61792.09
2023-03-03T21:32:10.605Z,61792.09
2023-03-03T21:34:40.851Z,61792.09
2023-03-03T21:37:17.255Z,61792.09
2023-03-03T21:39:44.721Z,61792.09
2023-03-03T21:42:19.110Z,61792.09
2023-03-03T21:44:50.691Z,61792.09
2023-03-03T21:47:23.359Z,61792.09
2023-03-03T21:49:52.246Z,61792.09
2023-03-03T21:52:21.932Z,61792.09
2023-03-03T21:54:51.368Z,61792.09
2023-03-03T21:57:18.510Z,61792.09
2023-03-03T21:59:45.328Z,61792.09
2023-03-03T22:02:12.493Z,61792.09
2023-03-03T22:04:39.425Z,61792.09
2023-03-03T22:07:06.449Z,61792.09
2023-03-03T22:09:34.141Z,61792.09
2023-03-03T22:12:01.263Z,61792.09
2023-03-03T22:14:30.903Z,61792.09
2023-03-03T22:16:57.616Z,61792.09
2023-03-03T22:19:24.944Z,61792.09
2023-03-03T22:21:51.700Z,61792.09
2023-03-03T22:24:18.926Z,61792.09
2023-03-03T22:26:45.703Z,61792.09
2023-03-03T22:29:12.743Z,61792.09
2023-03-03T22:31:39.675Z,61792.09
2023-03-03T22:34:06.625Z,61792.09
2023-03-03T22:36:33.564Z,61792.09
2023-03-03T22:39:00.880Z,61792.09
2023-03-03T22:41:27.639Z,61792.09
2023-03-03T22:43:54.392Z,61792.09
2023-03-03T22:46:21.176Z,61792.09
2023-03-03T22:48:47.920Z,61792.09
2023-03-03T22:51:14.945Z,61792.09
2023-03-03T22:53:43.965Z,61792.09
2023-03-03T22:56:10.676Z,61792.09
2023-03-03T22:58:37.426Z,61792.09
2023-03-03T23:01:05.055Z,61792.09
2023-03-03T23:03:32.631Z,61792.09
2023-03-03T23:05:59.708Z,61792.09
2023-03-03T23:08:27.415Z,61792.09
2023-03-03T23:10:54.116Z,61792.09
2023-03-03T23:13:21.169Z,61792.09
2023-03-03T23:15:48.010Z,61792.09
2023-03-03T23:18:14.807Z,61792.09
2023-03-03T23:20:45.589Z,61792.09
2023-03-03T23:23:12.596Z,61792.09
2023-03-03T23:25:39.396Z,61792.09
2023-03-03T23:28:06.394Z,61792.09
2023-03-03T23:30:33.284Z,61792.09
2023-03-03T23:33:00.005Z,61792.09
2023-03-03T23:35:26.814Z,61792.09
2023-03-03T23:37:53.536Z,61792.09
2023-03-03T23:40:20.376Z,61792.09
2023-03-03T23:42:47.126Z,61792.09
2023-03-03T23:45:14.136Z,61792.09
2023-03-03T23:47:41.474Z,61792.09
2023-03-03T23:50:11.573Z,61792.09
2023-03-03T23:52:38.325Z,61792.09
2023-03-03T23:55:06.536Z,61792.09
2023-03-03T23:57:33.479Z,61792.09
